ETHN

Niederstetten Air Base

Airport
ICAO code
ETHN
Summary
ICAO Region
EUR
ICAO Territory
Location

Niederstetten, Baden-Württemberg,

Coordinates
49° 23' 26" N , 9° 57' 41" E
Metar
Observation
ETHN 031920Z 28022KT 9999 -RADZ BKN002 OVC007 06/05 Q1024 AMB
Station
Niederstetten
Date/Time
2023-02-03 19:20:00
Wind direction
280°
Wind speed
22 kts
Lowest cloud amount
broken clouds
Temperature
6°C
Dew point
5°C
Humidity
93%
QNH
1024 hPa
Weather condition
drizzle

Description

Niederstetten Air Base is located 4 km east of the city of Niederstetten in Northern Baden-Württemberg, Germany.

Runways

Designator Length Width Surface Rops
7/25 1012 30 ASP No/No

Airport map

Aerial View

SKYbrary Partners:

Safety knowledge contributed by: